sensor_id;sensor_type;location;lat;lon;timestamp;P1;durP1;ratioP1;P2;durP2;ratioP2
20314;SDS011;10315;50.958;13.080;2023-04-03T00:02:01;4.70;;;1.43;;
20314;SDS011;10315;50.958;13.080;2023-04-03T00:12:02;2.90;;;1.40;;
20314;SDS011;10315;50.958;13.080;2023-04-03T00:22:05;1.83;;;1.03;;
20314;SDS011;10315;50.958;13.080;2023-04-03T00:32:07;3.00;;;1.20;;
20314;SDS011;10315;50.958;13.080;2023-04-03T00:42:10;3.70;;;1.70;;
20314;SDS011;10315;50.958;13.080;2023-04-03T00:52:13;5.33;;;1.47;;
20314;SDS011;10315;50.958;13.080;2023-04-03T01:02:18;4.10;;;1.30;;
20314;SDS011;10315;50.958;13.080;2023-04-03T01:12:21;3.63;;;1.30;;
20314;SDS011;10315;50.958;13.080;2023-04-03T01:22:25;3.07;;;1.43;;
20314;SDS011;10315;50.958;13.080;2023-04-03T01:32:33;6.47;;;1.50;;
20314;SDS011;10315;50.958;13.080;2023-04-03T01:42:34;12.23;;;1.90;;
20314;SDS011;10315;50.958;13.080;2023-04-03T01:52:37;6.20;;;2.37;;
20314;SDS011;10315;50.958;13.080;2023-04-03T02:02:39;4.20;;;1.90;;
20314;SDS011;10315;50.958;13.080;2023-04-03T02:12:42;3.47;;;1.33;;
20314;SDS011;10315;50.958;13.080;2023-04-03T02:22:43;2.57;;;1.43;;
20314;SDS011;10315;50.958;13.080;2023-04-03T02:32:46;4.43;;;1.50;;
20314;SDS011;10315;50.958;13.080;2023-04-03T02:42:48;6.30;;;1.67;;
20314;SDS011;10315;50.958;13.080;2023-04-03T02:52:50;7.33;;;1.50;;
20314;SDS011;10315;50.958;13.080;2023-04-03T03:02:52;9.67;;;1.70;;
20314;SDS011;10315;50.958;13.080;2023-04-03T03:12:55;8.80;;;1.50;;
20314;SDS011;10315;50.958;13.080;2023-04-03T03:22:56;6.90;;;1.60;;
20314;SDS011;10315;50.958;13.080;2023-04-03T03:32:59;5.27;;;1.50;;
20314;SDS011;10315;50.958;13.080;2023-04-03T03:43:01;3.83;;;1.90;;
20314;SDS011;10315;50.958;13.080;2023-04-03T03:53:04;3.60;;;1.43;;
20314;SDS011;10315;50.958;13.080;2023-04-03T04:03:06;9.10;;;2.00;;
20314;SDS011;10315;50.958;13.080;2023-04-03T04:13:11;11.70;;;2.40;;
20314;SDS011;10315;50.958;13.080;2023-04-03T04:23:13;2.90;;;1.63;;
20314;SDS011;10315;50.958;13.080;2023-04-03T04:33:23;8.57;;;2.00;;
20314;SDS011;10315;50.958;13.080;2023-04-03T04:43:25;4.80;;;2.47;;
20314;SDS011;10315;50.958;13.080;2023-04-03T04:53:28;14.03;;;2.30;;
20314;SDS011;10315;50.958;13.080;2023-04-03T05:03:30;4.20;;;1.97;;
20314;SDS011;10315;50.958;13.080;2023-04-03T05:13:33;3.00;;;1.70;;
20314;SDS011;10315;50.958;13.080;2023-04-03T05:23:35;7.37;;;2.00;;
20314;SDS011;10315;50.958;13.080;2023-04-03T05:33:38;6.77;;;1.90;;
20314;SDS011;10315;50.958;13.080;2023-04-03T05:43:39;8.83;;;1.80;;
20314;SDS011;10315;50.958;13.080;2023-04-03T05:53:43;10.50;;;2.47;;
20314;SDS011;10315;50.958;13.080;2023-04-03T06:03:45;5.23;;;1.60;;
20314;SDS011;10315;50.958;13.080;2023-04-03T06:13:48;4.33;;;1.90;;
20314;SDS011;10315;50.958;13.080;2023-04-03T06:23:50;11.10;;;1.90;;
20314;SDS011;10315;50.958;13.080;2023-04-03T06:33:53;2.03;;;1.70;;
20314;SDS011;10315;50.958;13.080;2023-04-03T06:43:55;7.60;;;2.50;;
20314;SDS011;10315;50.958;13.080;2023-04-03T06:53:59;6.73;;;2.20;;
20314;SDS011;10315;50.958;13.080;2023-04-03T07:04:01;6.10;;;2.20;;
20314;SDS011;10315;50.958;13.080;2023-04-03T07:14:04;10.30;;;2.40;;
20314;SDS011;10315;50.958;13.080;2023-04-03T07:24:07;5.17;;;3.00;;
20314;SDS011;10315;50.958;13.080;2023-04-03T07:34:10;10.67;;;3.10;;
20314;SDS011;10315;50.958;13.080;2023-04-03T07:44:12;6.67;;;3.13;;
20314;SDS011;10315;50.958;13.080;2023-04-03T07:54:18;13.07;;;3.50;;
20314;SDS011;10315;50.958;13.080;2023-04-03T08:04:19;6.10;;;3.60;;
20314;SDS011;10315;50.958;13.080;2023-04-03T08:14:22;17.70;;;4.53;;
20314;SDS011;10315;50.958;13.080;2023-04-03T08:24:24;8.10;;;3.40;;
20314;SDS011;10315;50.958;13.080;2023-04-03T08:34:27;10.63;;;3.50;;
20314;SDS011;10315;50.958;13.080;2023-04-03T08:44:31;8.33;;;2.90;;
20314;SDS011;10315;50.958;13.080;2023-04-03T08:54:46;6.77;;;3.93;;
20314;SDS011;10315;50.958;13.080;2023-04-03T09:04:51;7.30;;;3.00;;
20314;SDS011;10315;50.958;13.080;2023-04-03T09:14:57;3.20;;;2.47;;
20314;SDS011;10315;50.958;13.080;2023-04-03T09:25:05;10.87;;;3.10;;
20314;SDS011;10315;50.958;13.080;2023-04-03T09:35:20;6.67;;;2.43;;
20314;SDS011;10315;50.958;13.080;2023-04-03T09:45:25;11.43;;;2.27;;
20314;SDS011;10315;50.958;13.080;2023-04-03T09:55:30;11.70;;;2.37;;
20314;SDS011;10315;50.958;13.080;2023-04-03T10:05:33;3.00;;;1.40;;
20314;SDS011;10315;50.958;13.080;2023-04-03T10:15:39;8.23;;;1.77;;
20314;SDS011;10315;50.958;13.080;2023-04-03T10:25:45;2.07;;;1.17;;
20314;SDS011;10315;50.958;13.080;2023-04-03T10:36:01;9.33;;;1.97;;
20314;SDS011;10315;50.958;13.080;2023-04-03T10:46:12;2.47;;;0.80;;
20314;SDS011;10315;50.958;13.080;2023-04-03T10:56:21;6.53;;;2.03;;
20314;SDS011;10315;50.958;13.080;2023-04-03T11:06:31;0.80;;;0.80;;
20314;SDS011;10315;50.958;13.080;2023-04-03T11:16:40;6.77;;;1.27;;
20314;SDS011;10315;50.958;13.080;2023-04-03T11:26:45;1.83;;;0.90;;
20314;SDS011;10315;50.958;13.080;2023-04-03T11:36:52;1.77;;;1.20;;
20314;SDS011;10315;50.958;13.080;2023-04-03T11:46:56;5.93;;;1.47;;
20314;SDS011;10315;50.958;13.080;2023-04-03T11:57:00;4.20;;;0.90;;
20314;SDS011;10315;50.958;13.080;2023-04-03T12:07:21;3.03;;;1.00;;
20314;SDS011;10315;50.958;13.080;2023-04-03T12:17:27;2.17;;;0.90;;
20314;SDS011;10315;50.958;13.080;2023-04-03T12:27:32;1.47;;;1.13;;
20314;SDS011;10315;50.958;13.080;2023-04-03T12:37:43;1.67;;;1.00;;
20314;SDS011;10315;50.958;13.080;2023-04-03T12:48:20;2.77;;;1.07;;
20314;SDS011;10315;50.958;13.080;2023-04-03T12:58:27;1.67;;;0.90;;
20314;SDS011;10315;50.958;13.080;2023-04-03T13:08:30;10.20;;;1.07;;
20314;SDS011;10315;50.958;13.080;2023-04-03T13:18:34;2.43;;;1.10;;
20314;SDS011;10315;50.958;13.080;2023-04-03T13:28:37;6.13;;;1.03;;
20314;SDS011;10315;50.958;13.080;2023-04-03T13:38:41;2.80;;;1.23;;
20314;SDS011;10315;50.958;13.080;2023-04-03T13:48:44;1.27;;;1.00;;
20314;SDS011;10315;50.958;13.080;2023-04-03T14:09:25;2.10;;;1.27;;
20314;SDS011;10315;50.958;13.080;2023-04-03T14:19:30;2.83;;;1.53;;
20314;SDS011;10315;50.958;13.080;2023-04-03T14:29:34;5.77;;;1.57;;
20314;SDS011;10315;50.958;13.080;2023-04-03T14:39:37;3.97;;;2.20;;
20314;SDS011;10315;50.958;13.080;2023-04-03T14:49:39;3.33;;;1.10;;
20314;SDS011;10315;50.958;13.080;2023-04-03T14:59:42;6.47;;;1.37;;
20314;SDS011;10315;50.958;13.080;2023-04-03T15:09:44;7.00;;;1.30;;
20314;SDS011;10315;50.958;13.080;2023-04-03T15:19:47;2.10;;;1.30;;
20314;SDS011;10315;50.958;13.080;2023-04-03T15:29:49;3.90;;;1.40;;
20314;SDS011;10315;50.958;13.080;2023-04-03T15:39:52;2.87;;;1.40;;
20314;SDS011;10315;50.958;13.080;2023-04-03T15:49:54;2.33;;;1.30;;
20314;SDS011;10315;50.958;13.080;2023-04-03T15:59:57;2.47;;;1.23;;
20314;SDS011;10315;50.958;13.080;2023-04-03T16:09:59;2.87;;;1.00;;
20314;SDS011;10315;50.958;13.080;2023-04-03T16:20:02;1.77;;;1.37;;
20314;SDS011;10315;50.958;13.080;2023-04-03T16:30:06;1.87;;;1.17;;
20314;SDS011;10315;50.958;13.080;2023-04-03T16:40:10;2.37;;;1.10;;
20314;SDS011;10315;50.958;13.080;2023-04-03T16:50:12;0.70;;;0.70;;
20314;SDS011;10315;50.958;13.080;2023-04-03T17:00:16;2.60;;;1.33;;
20314;SDS011;10315;50.958;13.080;2023-04-03T17:10:17;2.83;;;1.23;;
20314;SDS011;10315;50.958;13.080;2023-04-03T17:20:20;2.93;;;1.10;;
20314;SDS011;10315;50.958;13.080;2023-04-03T17:30:22;6.87;;;1.33;;
20314;SDS011;10315;50.958;13.080;2023-04-03T17:40:25;3.10;;;1.30;;
20314;SDS011;10315;50.958;13.080;2023-04-03T17:50:27;6.70;;;1.57;;
20314;SDS011;10315;50.958;13.080;2023-04-03T18:00:30;5.90;;;1.43;;
20314;SDS011;10315;50.958;13.080;2023-04-03T18:10:32;6.23;;;1.60;;
20314;SDS011;10315;50.958;13.080;2023-04-03T18:20:36;2.20;;;1.53;;
20314;SDS011;10315;50.958;13.080;2023-04-03T18:30:38;3.13;;;2.80;;
20314;SDS011;10315;50.958;13.080;2023-04-03T18:40:45;2.10;;;1.47;;
20314;SDS011;10315;50.958;13.080;2023-04-03T18:50:48;1.57;;;1.40;;
20314;SDS011;10315;50.958;13.080;2023-04-03T19:00:59;2.43;;;1.57;;
20314;SDS011;10315;50.958;13.080;2023-04-03T19:11:01;1.87;;;1.40;;
20314;SDS011;10315;50.958;13.080;2023-04-03T19:21:04;4.00;;;2.07;;
20314;SDS011;10315;50.958;13.080;2023-04-03T19:31:12;1.97;;;1.63;;
20314;SDS011;10315;50.958;13.080;2023-04-03T19:41:17;2.23;;;1.20;;
20314;SDS011;10315;50.958;13.080;2023-04-03T19:51:21;4.90;;;1.70;;
20314;SDS011;10315;50.958;13.080;2023-04-03T20:01:24;4.20;;;1.77;;
20314;SDS011;10315;50.958;13.080;2023-04-03T20:11:28;1.73;;;1.43;;
20314;SDS011;10315;50.958;13.080;2023-04-03T20:21:31;2.93;;;1.80;;
20314;SDS011;10315;50.958;13.080;2023-04-03T20:31:34;2.17;;;1.77;;
20314;SDS011;10315;50.958;13.080;2023-04-03T20:41:41;2.60;;;1.67;;
20314;SDS011;10315;50.958;13.080;2023-04-03T20:51:42;5.03;;;2.20;;
20314;SDS011;10315;50.958;13.080;2023-04-03T21:01:45;2.80;;;1.60;;
20314;SDS011;10315;50.958;13.080;2023-04-03T21:22:30;6.00;;;2.13;;
20314;SDS011;10315;50.958;13.080;2023-04-03T21:32:31;5.37;;;2.30;;
20314;SDS011;10315;50.958;13.080;2023-04-03T21:42:34;3.77;;;2.20;;
20314;SDS011;10315;50.958;13.080;2023-04-03T21:52:36;4.07;;;2.23;;
20314;SDS011;10315;50.958;13.080;2023-04-03T22:02:39;3.93;;;2.40;;
20314;SDS011;10315;50.958;13.080;2023-04-03T22:12:44;5.37;;;2.13;;
20314;SDS011;10315;50.958;13.080;2023-04-03T22:22:49;4.43;;;2.37;;
20314;SDS011;10315;50.958;13.080;2023-04-03T22:32:51;8.07;;;2.40;;
20314;SDS011;10315;50.958;13.080;2023-04-03T22:42:54;2.43;;;2.10;;
20314;SDS011;10315;50.958;13.080;2023-04-03T22:52:55;3.57;;;2.40;;
20314;SDS011;10315;50.958;13.080;2023-04-03T23:02:58;4.33;;;2.70;;
20314;SDS011;10315;50.958;13.080;2023-04-03T23:13:00;6.77;;;2.50;;
20314;SDS011;10315;50.958;13.080;2023-04-03T23:23:03;5.90;;;2.57;;
20314;SDS011;10315;50.958;13.080;2023-04-03T23:33:05;7.20;;;2.80;;
20314;SDS011;10315;50.958;13.080;2023-04-03T23:43:08;3.43;;;2.27;;
20314;SDS011;10315;50.958;13.080;2023-04-03T23:53:10;2.87;;;2.33;;
